sensor_id;sensor_type;location;lat;lon;timestamp;pressure;altitude;pressure_sealevel;temperature;humidity
68193;BME280;55012;47.562;18.414;2023-01-25T00:01:54;100367.84;;;1.18;100.00
68193;BME280;55012;47.562;18.414;2023-01-25T00:04:20;100380.38;;;1.23;100.00
68193;BME280;55012;47.562;18.414;2023-01-25T00:06:46;100375.09;;;1.28;100.00
68193;BME280;55012;47.562;18.414;2023-01-25T00:09:12;100381.50;;;1.32;100.00
68193;BME280;55012;47.562;18.414;2023-01-25T00:11:38;100385.25;;;1.31;100.00
68193;BME280;55012;47.562;18.414;2023-01-25T00:14:03;100388.72;;;1.31;100.00
68193;BME280;55012;47.562;18.414;2023-01-25T00:16:30;100402.63;;;1.33;100.00
68193;BME280;55012;47.562;18.414;2023-01-25T00:18:55;100407.69;;;1.35;100.00
68193;BME280;55012;47.562;18.414;2023-01-25T00:21:22;100403.97;;;1.36;100.00
68193;BME280;55012;47.562;18.414;2023-01-25T00:23:49;100418.09;;;1.36;100.00
68193;BME280;55012;47.562;18.414;2023-01-25T00:26:14;100414.63;;;1.36;100.00
68193;BME280;55012;47.562;18.414;2023-01-25T00:28:40;100423.97;;;1.38;100.00
68193;BME280;55012;47.562;18.414;2023-01-25T00:31:06;100431.75;;;1.45;100.00
68193;BME280;55012;47.562;18.414;2023-01-25T00:36:02;100444.69;;;1.63;100.00
68193;BME280;55012;47.562;18.414;2023-01-25T00:38:47;100453.22;;;1.65;100.00
68193;BME280;55012;47.562;18.414;2023-01-25T00:41:13;100456.41;;;1.62;100.00
68193;BME280;55012;47.562;18.414;2023-01-25T00:43:38;100468.56;;;1.48;100.00
68193;BME280;55012;47.562;18.414;2023-01-25T00:46:04;100467.13;;;1.35;100.00
68193;BME280;55012;47.562;18.414;2023-01-25T00:48:29;100471.00;;;1.23;100.00
68193;BME280;55012;47.562;18.414;2023-01-25T00:51:02;100480.84;;;1.17;100.00
68193;BME280;55012;47.562;18.414;2023-01-25T00:53:27;100486.16;;;1.17;100.00
68193;BME280;55012;47.562;18.414;2023-01-25T00:55:53;100496.56;;;1.19;100.00
68193;BME280;55012;47.562;18.414;2023-01-25T00:58:18;100514.72;;;1.22;100.00
68193;BME280;55012;47.562;18.414;2023-01-25T01:00:44;100511.31;;;1.26;100.00
68193;BME280;55012;47.562;18.414;2023-01-25T01:03:09;100517.44;;;1.27;100.00
68193;BME280;55012;47.562;18.414;2023-01-25T01:05:34;100509.38;;;1.22;100.00
68193;BME280;55012;47.562;18.414;2023-01-25T01:08:01;100519.75;;;1.18;100.00
68193;BME280;55012;47.562;18.414;2023-01-25T01:10:26;100518.94;;;1.18;100.00
68193;BME280;55012;47.562;18.414;2023-01-25T01:12:55;100519.22;;;1.16;100.00
68193;BME280;55012;47.562;18.414;2023-01-25T01:15:20;100526.63;;;1.14;100.00
68193;BME280;55012;47.562;18.414;2023-01-25T01:17:46;100526.81;;;1.07;100.00
68193;BME280;55012;47.562;18.414;2023-01-25T01:20:12;100540.13;;;1.07;100.00
68193;BME280;55012;47.562;18.414;2023-01-25T01:22:37;100541.41;;;1.00;100.00
68193;BME280;55012;47.562;18.414;2023-01-25T01:25:03;100542.41;;;0.94;100.00
68193;BME280;55012;47.562;18.414;2023-01-25T01:27:29;100553.53;;;0.91;100.00
68193;BME280;55012;47.562;18.414;2023-01-25T01:29:54;100559.75;;;0.96;100.00
68193;BME280;55012;47.562;18.414;2023-01-25T01:32:19;100572.81;;;0.98;100.00
68193;BME280;55012;47.562;18.414;2023-01-25T01:34:45;100566.13;;;0.95;100.00
68193;BME280;55012;47.562;18.414;2023-01-25T01:37:10;100575.97;;;0.95;100.00
68193;BME280;55012;47.562;18.414;2023-01-25T01:39:36;100581.84;;;0.97;100.00
68193;BME280;55012;47.562;18.414;2023-01-25T01:42:02;100585.66;;;1.01;100.00
68193;BME280;55012;47.562;18.414;2023-01-25T01:44:52;100593.69;;;1.06;100.00
68193;BME280;55012;47.562;18.414;2023-01-25T01:47:31;100601.75;;;1.11;100.00
68193;BME280;55012;47.562;18.414;2023-01-25T01:50:05;100609.75;;;1.11;100.00
68193;BME280;55012;47.562;18.414;2023-01-25T01:52:38;100608.44;;;1.13;100.00
68193;BME280;55012;47.562;18.414;2023-01-25T01:55:07;100620.78;;;1.20;100.00
68193;BME280;55012;47.562;18.414;2023-01-25T01:57:43;100617.69;;;1.28;100.00
68193;BME280;55012;47.562;18.414;2023-01-25T02:00:20;100619.56;;;1.32;100.00
68193;BME280;55012;47.562;18.414;2023-01-25T02:02:48;100621.16;;;1.28;100.00
68193;BME280;55012;47.562;18.414;2023-01-25T02:05:21;100637.06;;;1.23;100.00
68193;BME280;55012;47.562;18.414;2023-01-25T02:07:51;100633.91;;;1.04;100.00
68193;BME280;55012;47.562;18.414;2023-01-25T02:10:19;100640.44;;;0.92;100.00
68193;BME280;55012;47.562;18.414;2023-01-25T02:12:46;100647.19;;;0.82;100.00
68193;BME280;55012;47.562;18.414;2023-01-25T02:15:12;100655.94;;;0.78;100.00
68193;BME280;55012;47.562;18.414;2023-01-25T02:17:38;100657.00;;;0.77;100.00
68193;BME280;55012;47.562;18.414;2023-01-25T02:25:37;100661.53;;;0.98;100.00
68193;BME280;55012;47.562;18.414;2023-01-25T02:30:32;100679.00;;;0.89;100.00
68193;BME280;55012;47.562;18.414;2023-01-25T02:32:58;100680.41;;;0.75;100.00
68193;BME280;55012;47.562;18.414;2023-01-25T02:38:00;100698.50;;;0.56;100.00
68193;BME280;55012;47.562;18.414;2023-01-25T02:40:27;100704.88;;;0.55;100.00
68193;BME280;55012;47.562;18.414;2023-01-25T02:42:55;100715.28;;;0.56;100.00
68193;BME280;55012;47.562;18.414;2023-01-25T02:45:24;100722.44;;;0.56;100.00
68193;BME280;55012;47.562;18.414;2023-01-25T02:47:51;100726.66;;;0.52;100.00
68193;BME280;55012;47.562;18.414;2023-01-25T02:50:17;100719.63;;;0.46;100.00
68193;BME280;55012;47.562;18.414;2023-01-25T02:52:42;100725.84;;;0.51;100.00
68193;BME280;55012;47.562;18.414;2023-01-25T02:55:08;100734.41;;;0.53;100.00
68193;BME280;55012;47.562;18.414;2023-01-25T02:57:33;100735.47;;;0.52;100.00
68193;BME280;55012;47.562;18.414;2023-01-25T02:59:59;100738.13;;;0.52;100.00
68193;BME280;55012;47.562;18.414;2023-01-25T03:02:24;100738.94;;;0.53;100.00
68193;BME280;55012;47.562;18.414;2023-01-25T03:04:50;100739.47;;;0.55;100.00
68193;BME280;55012;47.562;18.414;2023-01-25T03:07:15;100748.78;;;0.52;100.00
68193;BME280;55012;47.562;18.414;2023-01-25T03:09:40;100750.06;;;0.50;100.00
68193;BME280;55012;47.562;18.414;2023-01-25T03:12:06;100761.75;;;0.49;100.00
68193;BME280;55012;47.562;18.414;2023-01-25T03:14:31;100771.13;;;0.51;100.00
68193;BME280;55012;47.562;18.414;2023-01-25T03:16:57;100769.13;;;0.59;100.00
68193;BME280;55012;47.562;18.414;2023-01-25T03:19:22;100778.78;;;0.65;100.00
68193;BME280;55012;47.562;18.414;2023-01-25T03:21:48;100780.19;;;0.67;100.00
68193;BME280;55012;47.562;18.414;2023-01-25T03:24:13;100789.28;;;0.71;100.00
68193;BME280;55012;47.562;18.414;2023-01-25T03:26:39;100794.94;;;0.75;100.00
68193;BME280;55012;47.562;18.414;2023-01-25T03:29:23;100806.16;;;0.77;100.00
68193;BME280;55012;47.562;18.414;2023-01-25T03:31:48;100813.41;;;0.81;100.00
68193;BME280;55012;47.562;18.414;2023-01-25T03:34:14;100824.88;;;0.82;100.00
68193;BME280;55012;47.562;18.414;2023-01-25T03:36:39;100835.38;;;0.72;100.00
68193;BME280;55012;47.562;18.414;2023-01-25T03:39:05;100840.41;;;0.56;100.00
68193;BME280;55012;47.562;18.414;2023-01-25T03:41:30;100665.59;;;0.45;100.00
68193;BME280;55012;47.562;18.414;2023-01-25T03:43:56;100598.72;;;0.42;100.00
68193;BME280;55012;47.562;18.414;2023-01-25T03:46:21;100607.66;;;0.52;100.00
68193;BME280;55012;47.562;18.414;2023-01-25T03:48:46;100622.72;;;0.64;100.00
68193;BME280;55012;47.562;18.414;2023-01-25T03:51:12;100646.38;;;0.60;100.00
68193;BME280;55012;47.562;18.414;2023-01-25T03:53:37;100670.09;;;0.62;100.00
68193;BME280;55012;47.562;18.414;2023-01-25T03:56:08;100692.59;;;0.71;100.00
68193;BME280;55012;47.562;18.414;2023-01-25T03:58:36;100702.28;;;0.77;100.00
68193;BME280;55012;47.562;18.414;2023-01-25T04:01:02;100714.22;;;0.91;100.00
68193;BME280;55012;47.562;18.414;2023-01-25T04:03:28;100715.97;;;1.02;100.00
68193;BME280;55012;47.562;18.414;2023-01-25T04:05:55;100720.53;;;1.07;100.00
68193;BME280;55012;47.562;18.414;2023-01-25T04:08:21;100737.69;;;1.11;100.00
68193;BME280;55012;47.562;18.414;2023-01-25T04:10:54;100742.25;;;1.16;100.00
68193;BME280;55012;47.562;18.414;2023-01-25T04:13:21;100755.03;;;1.13;100.00
68193;BME280;55012;47.562;18.414;2023-01-25T04:15:48;100763.56;;;1.16;100.00
68193;BME280;55012;47.562;18.414;2023-01-25T04:18:14;100767.06;;;1.16;100.00
68193;BME280;55012;47.562;18.414;2023-01-25T04:20:39;100784.03;;;1.10;100.00
68193;BME280;55012;47.562;18.414;2023-01-25T04:23:06;100801.50;;;1.01;100.00
68193;BME280;55012;47.562;18.414;2023-01-25T04:25:31;100821.09;;;0.95;100.00
68193;BME280;55012;47.562;18.414;2023-01-25T04:27:57;100829.75;;;0.85;100.00
68193;BME280;55012;47.562;18.414;2023-01-25T04:30:22;100858.56;;;0.88;100.00
68193;BME280;55012;47.562;18.414;2023-01-25T04:32:48;100872.78;;;0.94;100.00
68193;BME280;55012;47.562;18.414;2023-01-25T04:35:14;100878.75;;;1.01;100.00
68193;BME280;55012;47.562;18.414;2023-01-25T04:37:39;100889.19;;;1.02;100.00
68193;BME280;55012;47.562;18.414;2023-01-25T04:40:05;100907.59;;;1.04;100.00
68193;BME280;55012;47.562;18.414;2023-01-25T04:42:31;100911.06;;;1.04;100.00
68193;BME280;55012;47.562;18.414;2023-01-25T04:44:56;100914.88;;;1.08;100.00
68193;BME280;55012;47.562;18.414;2023-01-25T04:47:22;100914.94;;;1.13;100.00
68193;BME280;55012;47.562;18.414;2023-01-25T04:49:47;100920.03;;;1.15;100.00
68193;BME280;55012;47.562;18.414;2023-01-25T04:52:12;100920.63;;;1.17;100.00
68193;BME280;55012;47.562;18.414;2023-01-25T04:54:38;100927.97;;;1.27;100.00
68193;BME280;55012;47.562;18.414;2023-01-25T04:57:03;100929.28;;;1.24;100.00
68193;BME280;55012;47.562;18.414;2023-01-25T04:59:29;100930.88;;;1.25;100.00
68193;BME280;55012;47.562;18.414;2023-01-25T05:01:55;100937.88;;;1.31;100.00
68193;BME280;55012;47.562;18.414;2023-01-25T05:04:20;100941.47;;;1.37;100.00
68193;BME280;55012;47.562;18.414;2023-01-25T05:06:45;100940.50;;;1.43;100.00
68193;BME280;55012;47.562;18.414;2023-01-25T05:09:11;100950.13;;;1.44;100.00
68193;BME280;55012;47.562;18.414;2023-01-25T05:11:36;100958.34;;;1.43;100.00
68193;BME280;55012;47.562;18.414;2023-01-25T05:14:02;100960.63;;;1.34;100.00
68193;BME280;55012;47.562;18.414;2023-01-25T05:16:27;100957.75;;;1.24;100.00
68193;BME280;55012;47.562;18.414;2023-01-25T05:18:55;100963.47;;;1.16;100.00
68193;BME280;55012;47.562;18.414;2023-01-25T05:21:21;100962.25;;;1.06;100.00
68193;BME280;55012;47.562;18.414;2023-01-25T05:24:06;100976.31;;;1.02;100.00
68193;BME280;55012;47.562;18.414;2023-01-25T05:26:31;100985.81;;;0.98;100.00
68193;BME280;55012;47.562;18.414;2023-01-25T05:29:15;100987.00;;;0.90;100.00
68193;BME280;55012;47.562;18.414;2023-01-25T05:31:41;100992.25;;;0.85;100.00
68193;BME280;55012;47.562;18.414;2023-01-25T05:34:08;100997.91;;;0.89;100.00
68193;BME280;55012;47.562;18.414;2023-01-25T05:36:33;101001.47;;;0.94;100.00
68193;BME280;55012;47.562;18.414;2023-01-25T05:38:59;101010.53;;;0.93;100.00
68193;BME280;55012;47.562;18.414;2023-01-25T05:41:24;101013.28;;;0.98;100.00
68193;BME280;55012;47.562;18.414;2023-01-25T05:43:50;101013.13;;;1.05;100.00
68193;BME280;55012;47.562;18.414;2023-01-25T05:46:15;101024.78;;;1.16;100.00
68193;BME280;55012;47.562;18.414;2023-01-25T05:48:40;101023.66;;;1.11;100.00
68193;BME280;55012;47.562;18.414;2023-01-25T05:51:06;101026.81;;;1.08;100.00
68193;BME280;55012;47.562;18.414;2023-01-25T05:53:31;101026.47;;;1.05;100.00
68193;BME280;55012;47.562;18.414;2023-01-25T05:56:04;101041.63;;;1.04;100.00
68193;BME280;55012;47.562;18.414;2023-01-25T05:58:29;101043.00;;;1.07;100.00
68193;BME280;55012;47.562;18.414;2023-01-25T06:00:55;101043.00;;;1.07;100.00
68193;BME280;55012;47.562;18.414;2023-01-25T06:03:20;101052.66;;;1.08;100.00
68193;BME280;55012;47.562;18.414;2023-01-25T06:05:45;101052.88;;;1.06;100.00
68193;BME280;55012;47.562;18.414;2023-01-25T06:08:11;101058.69;;;1.03;100.00
68193;BME280;55012;47.562;18.414;2023-01-25T06:10:36;101069.03;;;1.00;100.00
68193;BME280;55012;47.562;18.414;2023-01-25T06:13:02;101062.97;;;1.04;100.00
68193;BME280;55012;47.562;18.414;2023-01-25T06:15:27;101068.97;;;1.11;100.00
68193;BME280;55012;47.562;18.414;2023-01-25T06:17:56;101078.34;;;1.14;100.00
68193;BME280;55012;47.562;18.414;2023-01-25T06:20:22;101087.00;;;1.21;100.00
68193;BME280;55012;47.562;18.414;2023-01-25T06:22:50;101086.25;;;1.09;100.00
68193;BME280;55012;47.562;18.414;2023-01-25T06:25:17;101096.56;;;1.05;100.00
68193;BME280;55012;47.562;18.414;2023-01-25T06:27:42;101099.94;;;1.01;100.00
68193;BME280;55012;47.562;18.414;2023-01-25T06:30:08;101112.78;;;1.04;100.00
68193;BME280;55012;47.562;18.414;2023-01-25T06:32:34;101116.38;;;1.09;100.00
68193;BME280;55012;47.562;18.414;2023-01-25T06:34:59;101116.69;;;1.13;100.00
68193;BME280;55012;47.562;18.414;2023-01-25T06:37:25;101118.44;;;1.19;100.00
68193;BME280;55012;47.562;18.414;2023-01-25T06:39:51;101126.63;;;1.29;100.00
68193;BME280;55012;47.562;18.414;2023-01-25T06:42:17;101134.59;;;1.41;100.00
68193;BME280;55012;47.562;18.414;2023-01-25T06:44:42;101139.78;;;1.48;100.00
68193;BME280;55012;47.562;18.414;2023-01-25T06:47:08;101133.56;;;1.42;100.00
68193;BME280;55012;47.562;18.414;2023-01-25T06:49:33;101138.22;;;1.35;100.00
68193;BME280;55012;47.562;18.414;2023-01-25T06:51:59;101157.13;;;1.33;100.00
68193;BME280;55012;47.562;18.414;2023-01-25T06:54:26;101141.63;;;1.19;100.00
68193;BME280;55012;47.562;18.414;2023-01-25T06:56:51;101153.69;;;0.98;100.00
68193;BME280;55012;47.562;18.414;2023-01-25T06:59:16;101147.66;;;0.91;100.00
68193;BME280;55012;47.562;18.414;2023-01-25T07:01:42;101148.03;;;0.94;100.00
68193;BME280;55012;47.562;18.414;2023-01-25T07:04:09;101156.72;;;0.90;100.00
68193;BME280;55012;47.562;18.414;2023-01-25T07:06:36;101152.44;;;0.89;100.00
68193;BME280;55012;47.562;18.414;2023-01-25T07:09:03;101158.13;;;0.92;100.00
68193;BME280;55012;47.562;18.414;2023-01-25T07:11:28;101164.03;;;0.94;100.00
68193;BME280;55012;47.562;18.414;2023-01-25T07:13:54;101161.59;;;0.93;100.00
68193;BME280;55012;47.562;18.414;2023-01-25T07:16:19;101162.16;;;0.95;100.00
68193;BME280;55012;47.562;18.414;2023-01-25T07:18:46;101155.44;;;1.04;100.00
68193;BME280;55012;47.562;18.414;2023-01-25T07:21:15;101163.38;;;1.16;100.00
68193;BME280;55012;47.562;18.414;2023-01-25T07:23:41;101163.63;;;1.26;100.00
68193;BME280;55012;47.562;18.414;2023-01-25T07:26:20;101166.00;;;1.39;100.00
68193;BME280;55012;47.562;18.414;2023-01-25T07:28:46;101162.41;;;1.45;100.00
68193;BME280;55012;47.562;18.414;2023-01-25T07:31:13;101163.44;;;1.44;100.00
68193;BME280;55012;47.562;18.414;2023-01-25T07:33:40;101166.22;;;1.49;100.00
68193;BME280;55012;47.562;18.414;2023-01-25T07:36:07;101170.84;;;1.54;100.00
68193;BME280;55012;47.562;18.414;2023-01-25T07:38:34;101162.13;;;1.58;100.00
68193;BME280;55012;47.562;18.414;2023-01-25T07:41:00;101168.94;;;1.66;100.00
68193;BME280;55012;47.562;18.414;2023-01-25T07:43:25;101171.06;;;1.52;100.00
68193;BME280;55012;47.562;18.414;2023-01-25T07:45:52;101173.06;;;1.45;100.00
68193;BME280;55012;47.562;18.414;2023-01-25T07:48:19;101172.59;;;1.48;100.00
68193;BME280;55012;47.562;18.414;2023-01-25T07:50:44;101173.50;;;1.54;100.00
68193;BME280;55012;47.562;18.414;2023-01-25T07:53:30;101179.03;;;1.64;100.00
68193;BME280;55012;47.562;18.414;2023-01-25T07:55:57;101175.16;;;1.72;100.00
68193;BME280;55012;47.562;18.414;2023-01-25T07:58:23;101178.50;;;1.79;100.00
68193;BME280;55012;47.562;18.414;2023-01-25T08:00:48;101181.53;;;1.82;100.00
68193;BME280;55012;47.562;18.414;2023-01-25T08:03:13;101179.84;;;1.93;100.00
68193;BME280;55012;47.562;18.414;2023-01-25T08:05:43;101180.97;;;1.97;100.00
68193;BME280;55012;47.562;18.414;2023-01-25T08:08:08;101189.09;;;2.02;100.00
68193;BME280;55012;47.562;18.414;2023-01-25T08:10:34;101186.03;;;2.10;100.00
68193;BME280;55012;47.562;18.414;2023-01-25T08:12:59;101177.53;;;2.13;100.00
68193;BME280;55012;47.562;18.414;2023-01-25T08:15:25;101182.47;;;2.21;100.00
68193;BME280;55012;47.562;18.414;2023-01-25T08:17:50;101182.31;;;2.28;100.00
68193;BME280;55012;47.562;18.414;2023-01-25T08:20:16;101182.72;;;2.37;100.00
68193;BME280;55012;47.562;18.414;2023-01-25T08:22:42;101185.47;;;2.42;100.00
68193;BME280;55012;47.562;18.414;2023-01-25T08:25:09;101185.53;;;2.47;100.00
68193;BME280;55012;47.562;18.414;2023-01-25T08:27:34;101184.97;;;2.45;100.00
68193;BME280;55012;47.562;18.414;2023-01-25T08:29:59;101191.47;;;2.49;100.00
68193;BME280;55012;47.562;18.414;2023-01-25T08:32:25;101198.75;;;2.53;100.00
68193;BME280;55012;47.562;18.414;2023-01-25T08:34:50;101196.16;;;2.59;100.00
68193;BME280;55012;47.562;18.414;2023-01-25T08:37:16;101201.25;;;2.60;100.00
68193;BME280;55012;47.562;18.414;2023-01-25T08:39:41;101199.22;;;2.67;100.00
68193;BME280;55012;47.562;18.414;2023-01-25T08:42:07;101199.00;;;2.69;100.00
68193;BME280;55012;47.562;18.414;2023-01-25T08:44:32;101208.38;;;2.71;100.00
68193;BME280;55012;47.562;18.414;2023-01-25T08:46:58;101202.47;;;2.69;100.00
68193;BME280;55012;47.562;18.414;2023-01-25T08:49:23;101208.31;;;2.66;100.00
68193;BME280;55012;47.562;18.414;2023-01-25T08:51:50;101210.88;;;2.61;100.00
68193;BME280;55012;47.562;18.414;2023-01-25T08:54:17;101210.88;;;2.61;100.00
68193;BME280;55012;47.562;18.414;2023-01-25T08:56:42;101214.72;;;2.65;100.00
68193;BME280;55012;47.562;18.414;2023-01-25T08:59:12;101206.09;;;2.63;100.00
68193;BME280;55012;47.562;18.414;2023-01-25T09:01:37;101211.53;;;2.68;100.00
68193;BME280;55012;47.562;18.414;2023-01-25T09:04:03;101215.28;;;2.67;100.00
68193;BME280;55012;47.562;18.414;2023-01-25T09:06:28;101213.72;;;2.71;100.00
68193;BME280;55012;47.562;18.414;2023-01-25T09:08:54;101211.78;;;2.67;100.00
68193;BME280;55012;47.562;18.414;2023-01-25T09:11:21;101219.81;;;2.67;100.00
68193;BME280;55012;47.562;18.414;2023-01-25T09:13:47;101219.81;;;2.67;100.00
68193;BME280;55012;47.562;18.414;2023-01-25T09:16:15;101216.06;;;2.68;100.00
68193;BME280;55012;47.562;18.414;2023-01-25T09:18:42;101227.25;;;2.81;100.00
68193;BME280;55012;47.562;18.414;2023-01-25T09:21:12;101223.25;;;3.01;100.00
68193;BME280;55012;47.562;18.414;2023-01-25T09:23:38;101230.09;;;3.14;100.00
68193;BME280;55012;47.562;18.414;2023-01-25T09:26:04;101230.00;;;3.25;100.00
68193;BME280;55012;47.562;18.414;2023-01-25T09:28:30;101222.19;;;3.41;100.00
68193;BME280;55012;47.562;18.414;2023-01-25T09:30:57;101228.16;;;3.48;100.00
68193;BME280;55012;47.562;18.414;2023-01-25T09:33:27;101231.28;;;3.40;100.00
68193;BME280;55012;47.562;18.414;2023-01-25T09:35:53;101228.78;;;3.33;100.00
68193;BME280;55012;47.562;18.414;2023-01-25T09:38:19;101231.03;;;3.41;100.00
68193;BME280;55012;47.562;18.414;2023-01-25T09:41:01;101229.19;;;3.25;100.00
68193;BME280;55012;47.562;18.414;2023-01-25T09:43:46;101224.59;;;3.20;100.00
68193;BME280;55012;47.562;18.414;2023-01-25T09:54:28;101235.84;;;2.67;100.00
68193;BME280;55012;47.562;18.414;2023-01-25T09:56:56;101240.38;;;2.66;100.00
68193;BME280;55012;47.562;18.414;2023-01-25T09:59:25;101233.31;;;2.77;100.00
68193;BME280;55012;47.562;18.414;2023-01-25T10:02:01;101236.06;;;2.99;100.00
68193;BME280;55012;47.562;18.414;2023-01-25T10:04:41;101231.75;;;3.15;100.00
68193;BME280;55012;47.562;18.414;2023-01-25T10:07:20;101233.00;;;3.29;100.00
68193;BME280;55012;47.562;18.414;2023-01-25T10:10:12;101229.84;;;3.32;100.00
68193;BME280;55012;47.562;18.414;2023-01-25T10:12:38;101228.94;;;3.26;100.00
68193;BME280;55012;47.562;18.414;2023-01-25T10:15:21;101214.44;;;3.22;100.00
68193;BME280;55012;47.562;18.414;2023-01-25T10:18:04;101217.75;;;3.29;100.00
68193;BME280;55012;47.562;18.414;2023-01-25T10:20:56;101218.81;;;3.28;100.00
68193;BME280;55012;47.562;18.414;2023-01-25T10:23:26;101211.72;;;3.17;100.00
68193;BME280;55012;47.562;18.414;2023-01-25T10:25:57;101208.09;;;3.06;100.00
68193;BME280;55012;47.562;18.414;2023-01-25T10:28:40;101202.94;;;3.00;100.00
68193;BME280;55012;47.562;18.414;2023-01-25T10:31:14;101205.69;;;2.88;100.00
68193;BME280;55012;47.562;18.414;2023-01-25T10:33:43;101205.94;;;2.87;100.00
68193;BME280;55012;47.562;18.414;2023-01-25T10:36:15;101207.00;;;2.86;100.00
68193;BME280;55012;47.562;18.414;2023-01-25T10:38:46;101195.31;;;2.92;100.00
68193;BME280;55012;47.562;18.414;2023-01-25T10:43:38;101202.13;;;2.99;100.00
68193;BME280;55012;47.562;18.414;2023-01-25T10:46:16;101187.00;;;3.10;100.00
68193;BME280;55012;47.562;18.414;2023-01-25T10:48:42;101188.19;;;3.19;100.00
68193;BME280;55012;47.562;18.414;2023-01-25T10:51:08;101180.81;;;3.26;100.00
68193;BME280;55012;47.562;18.414;2023-01-25T10:53:35;101172.16;;;3.19;100.00
68193;BME280;55012;47.562;18.414;2023-01-25T10:58:38;101164.44;;;3.01;100.00
68193;BME280;55012;47.562;18.414;2023-01-25T11:01:07;101174.19;;;2.90;100.00
68193;BME280;55012;47.562;18.414;2023-01-25T11:06:03;101175.84;;;2.74;100.00
68193;BME280;55012;47.562;18.414;2023-01-25T11:10:55;101158.34;;;2.67;100.00
68193;BME280;55012;47.562;18.414;2023-01-25T11:13:24;101159.63;;;2.64;100.00
68193;BME280;55012;47.562;18.414;2023-01-25T11:16:09;101148.06;;;2.59;100.00
68193;BME280;55012;47.562;18.414;2023-01-25T11:18:49;101153.25;;;2.65;100.00
68193;BME280;55012;47.562;18.414;2023-01-25T11:21:17;101141.47;;;2.83;100.00
68193;BME280;55012;47.562;18.414;2023-01-25T11:24:01;101145.47;;;3.02;100.00
68193;BME280;55012;47.562;18.414;2023-01-25T11:26:27;101132.72;;;3.09;100.00
68193;BME280;55012;47.562;18.414;2023-01-25T11:29:12;101134.09;;;3.12;100.00
68193;BME280;55012;47.562;18.414;2023-01-25T11:31:41;101128.63;;;3.24;100.00
68193;BME280;55012;47.562;18.414;2023-01-25T11:34:12;101120.75;;;3.39;100.00
68193;BME280;55012;47.562;18.414;2023-01-25T11:37:39;101119.75;;;3.45;100.00
68193;BME280;55012;47.562;18.414;2023-01-25T11:42:40;101105.28;;;3.68;100.00
68193;BME280;55012;47.562;18.414;2023-01-25T11:45:41;101101.09;;;3.77;100.00
68193;BME280;55012;47.562;18.414;2023-01-25T11:48:26;101096.28;;;3.79;100.00
68193;BME280;55012;47.562;18.414;2023-01-25T11:56:38;101083.34;;;3.71;100.00
68193;BME280;55012;47.562;18.414;2023-01-25T12:01:53;101075.44;;;3.54;100.00
68193;BME280;55012;47.562;18.414;2023-01-25T12:04:40;101076.66;;;3.42;100.00
68193;BME280;55012;47.562;18.414;2023-01-25T12:13:06;101076.03;;;3.07;100.00
68193;BME280;55012;47.562;18.414;2023-01-25T12:15:46;101066.25;;;2.96;100.00
68193;BME280;55012;47.562;18.414;2023-01-25T12:24:12;101043.94;;;3.07;100.00
68193;BME280;55012;47.562;18.414;2023-01-25T12:26:53;101048.75;;;3.32;100.00
68193;BME280;55012;47.562;18.414;2023-01-25T12:29:33;101047.03;;;3.48;100.00
68193;BME280;55012;47.562;18.414;2023-01-25T12:34:56;101041.03;;;3.14;100.00
68193;BME280;55012;47.562;18.414;2023-01-25T12:37:31;101023.84;;;3.05;100.00
68193;BME280;55012;47.562;18.414;2023-01-25T12:40:03;101030.69;;;2.96;100.00
68193;BME280;55012;47.562;18.414;2023-01-25T12:42:38;101032.13;;;3.03;100.00
68193;BME280;55012;47.562;18.414;2023-01-25T12:47:49;101021.41;;;3.03;100.00
68193;BME280;55012;47.562;18.414;2023-01-25T12:50:22;101023.00;;;2.99;100.00
68193;BME280;55012;47.562;18.414;2023-01-25T12:53:19;101033.97;;;3.03;100.00
68193;BME280;55012;47.562;18.414;2023-01-25T12:55:47;101027.16;;;2.90;100.00
68193;BME280;55012;47.562;18.414;2023-01-25T12:58:37;101017.09;;;2.75;100.00
68193;BME280;55012;47.562;18.414;2023-01-25T13:01:28;101015.03;;;2.61;100.00
68193;BME280;55012;47.562;18.414;2023-01-25T13:09:33;101002.84;;;2.70;100.00
68193;BME280;55012;47.562;18.414;2023-01-25T13:12:04;101001.25;;;2.69;100.00
68193;BME280;55012;47.562;18.414;2023-01-25T13:14:35;100991.88;;;2.66;100.00
68193;BME280;55012;47.562;18.414;2023-01-25T13:19:45;100987.16;;;2.73;100.00
68193;BME280;55012;47.562;18.414;2023-01-25T13:22:12;100989.00;;;2.73;100.00
68193;BME280;55012;47.562;18.414;2023-01-25T13:27:41;100975.50;;;2.85;100.00
68193;BME280;55012;47.562;18.414;2023-01-25T13:35:29;100976.97;;;2.97;100.00
68193;BME280;55012;47.562;18.414;2023-01-25T13:38:05;100976.03;;;3.08;100.00
68193;BME280;55012;47.562;18.414;2023-01-25T13:41:10;100974.97;;;3.09;100.00
68193;BME280;55012;47.562;18.414;2023-01-25T13:43:42;100977.72;;;3.15;100.00
68193;BME280;55012;47.562;18.414;2023-01-25T13:46:11;100975.25;;;3.13;100.00
68193;BME280;55012;47.562;18.414;2023-01-25T13:49:02;100971.97;;;3.06;100.00
68193;BME280;55012;47.562;18.414;2023-01-25T13:51:32;100964.97;;;3.00;100.00
68193;BME280;55012;47.562;18.414;2023-01-25T13:54:01;100968.41;;;2.95;100.00
68193;BME280;55012;47.562;18.414;2023-01-25T13:56:32;100966.03;;;2.99;100.00
68193;BME280;55012;47.562;18.414;2023-01-25T13:58:59;100971.59;;;2.92;100.00
68193;BME280;55012;47.562;18.414;2023-01-25T14:01:27;100970.25;;;2.95;100.00
68193;BME280;55012;47.562;18.414;2023-01-25T14:04:02;100970.59;;;2.98;100.00
68193;BME280;55012;47.562;18.414;2023-01-25T14:06:30;100974.28;;;2.97;100.00